createdAt,value
2022-10-22T00:00:37.752Z,12.00
2022-10-22T00:05:40.598Z,12.10
2022-10-22T00:10:43.701Z,12.10
2022-10-22T00:15:47.867Z,12.10
2022-10-22T00:20:50.659Z,12.10
2022-10-22T00:25:54.347Z,12.20
2022-10-22T00:31:00.033Z,12.20
2022-10-22T00:36:02.887Z,12.30
2022-10-22T00:41:05.829Z,12.30
2022-10-22T00:46:09.965Z,12.20
2022-10-22T00:51:13.071Z,12.10
2022-10-22T00:56:16.528Z,12.10
2022-10-22T01:01:24.648Z,12.00
2022-10-22T01:06:29.868Z,11.90
2022-10-22T01:11:42.498Z,11.90
2022-10-22T01:16:52.512Z,11.90
2022-10-22T01:22:00.511Z,12.00
2022-10-22T01:27:30.883Z,12.10
2022-10-22T01:32:40.540Z,12.10
2022-10-22T01:37:49.224Z,12.10
2022-10-22T01:42:59.865Z,12.10
2022-10-22T01:48:18.024Z,12.10
2022-10-22T01:53:28.335Z,12.10
2022-10-22T01:58:40.607Z,12.10
2022-10-22T02:03:51.852Z,12.20
2022-10-22T02:08:57.262Z,12.20
2022-10-22T02:14:04.115Z,12.40
2022-10-22T02:19:15.787Z,12.40
2022-10-22T02:24:19.436Z,12.40
2022-10-22T02:29:27.482Z,12.40
2022-10-22T02:34:33.030Z,12.40
2022-10-22T02:39:37.480Z,12.40
2022-10-22T02:44:40.326Z,12.30
2022-10-22T02:49:44.465Z,12.10
2022-10-22T02:54:47.234Z,11.90
2022-10-22T02:59:49.939Z,11.80
2022-10-22T03:04:54.051Z,11.90
2022-10-22T03:09:56.898Z,11.90
2022-10-22T03:14:59.665Z,12.00
2022-10-22T03:20:04.548Z,12.00
2022-10-22T03:25:12.083Z,12.10
2022-10-22T03:30:14.871Z,12.10
2022-10-22T03:35:18.977Z,12.20
2022-10-22T03:40:22.104Z,12.20
2022-10-22T03:45:25.025Z,12.20
2022-10-22T03:50:29.340Z,12.20
2022-10-22T03:55:32.074Z,12.20
2022-10-22T04:00:36.489Z,12.30
2022-10-22T04:05:40.548Z,12.20
2022-10-22T04:10:43.267Z,12.20
2022-10-22T04:20:55.005Z,12.20
2022-10-22T04:26:00.003Z,12.20
2022-10-22T04:31:09.132Z,12.20
2022-10-22T04:36:16.101Z,12.20
2022-10-22T04:41:21.063Z,12.20
2022-10-22T04:46:24.840Z,12.20
2022-10-22T04:51:28.957Z,12.20
2022-10-22T04:56:32.991Z,12.30
2022-10-22T05:01:40.178Z,12.20
2022-10-22T05:06:47.441Z,12.10
2022-10-22T05:11:51.906Z,12.10
2022-10-22T05:16:55.276Z,12.10
2022-10-22T05:22:02.195Z,12.20
2022-10-22T05:27:05.138Z,12.30
2022-10-22T05:32:07.942Z,12.40
2022-10-22T05:37:12.066Z,12.30
2022-10-22T05:42:14.830Z,12.30
2022-10-22T05:47:17.599Z,12.30
2022-10-22T05:52:21.699Z,12.20
2022-10-22T05:57:24.520Z,12.30
2022-10-22T06:02:27.317Z,12.30
2022-10-22T06:07:33.242Z,12.40
2022-10-22T06:12:35.983Z,12.40
2022-10-22T06:17:38.792Z,12.50
2022-10-22T06:22:43.126Z,12.50
2022-10-22T06:27:51.433Z,12.50
2022-10-22T06:32:54.196Z,12.50
2022-10-22T06:37:58.380Z,12.50
2022-10-22T06:43:01.467Z,12.50
2022-10-22T06:48:04.608Z,12.50
2022-10-22T06:53:08.722Z,12.50
2022-10-22T06:58:11.584Z,12.50
2022-10-22T07:03:14.706Z,12.50
2022-10-22T07:08:18.818Z,12.50
2022-10-22T07:13:21.654Z,12.40
2022-10-22T07:18:24.376Z,12.40
2022-10-22T07:23:29.287Z,12.50
2022-10-22T07:28:33.426Z,12.50
2022-10-22T07:33:36.786Z,12.50
2022-10-22T07:38:40.863Z,12.60
2022-10-22T07:43:44.035Z,12.40
2022-10-22T07:48:46.904Z,12.10
2022-10-22T07:53:51.000Z,12.00
2022-10-22T07:58:53.760Z,11.80
2022-10-22T08:03:56.521Z,11.80
2022-10-22T08:09:00.654Z,11.90
2022-10-22T08:14:03.445Z,11.80
2022-10-22T08:19:06.195Z,11.80
2022-10-22T08:24:10.507Z,12.00
2022-10-22T08:29:13.239Z,12.00
2022-10-22T08:34:16.051Z,12.00
2022-10-22T08:39:20.131Z,12.20
2022-10-22T08:44:47.386Z,12.30
2022-10-22T08:49:50.535Z,12.60
2022-10-22T08:54:58.160Z,12.70
2022-10-22T09:00:06.669Z,12.80
2022-10-22T09:05:30.198Z,13.10
2022-10-22T09:10:37.252Z,13.30
2022-10-22T09:15:41.674Z,13.50
2022-10-22T09:20:51.339Z,13.50
2022-10-22T09:25:57.177Z,13.60
2022-10-22T09:30:59.907Z,13.40
2022-10-22T09:36:04.528Z,13.50
2022-10-22T09:41:10.375Z,13.80
2022-10-22T09:46:18.197Z,14.20
2022-10-22T09:51:23.145Z,14.70
2022-10-22T09:56:29.850Z,15.50
2022-10-22T10:01:35.231Z,17.00
2022-10-22T10:06:40.202Z,18.90
2022-10-22T10:11:49.256Z,18.90
2022-10-22T10:16:59.421Z,20.00
2022-10-22T10:22:11.779Z,21.30
2022-10-22T10:27:26.725Z,24.00
2022-10-22T10:32:48.124Z,26.50
2022-10-22T10:38:05.969Z,24.10
2022-10-22T10:43:14.914Z,21.60
2022-10-22T10:48:45.005Z,26.90
2022-10-22T10:54:08.696Z,29.20
2022-10-22T10:59:20.057Z,37.40
2022-10-22T11:04:56.864Z,33.60
2022-10-22T11:10:04.247Z,37.20
2022-10-22T11:15:20.358Z,39.40
2022-10-22T11:20:29.373Z,39.10
2022-10-22T11:25:35.619Z,32.30
2022-10-22T11:30:44.129Z,27.20
2022-10-22T11:35:48.093Z,24.10
2022-10-22T11:40:55.819Z,21.70
2022-10-22T11:46:09.668Z,18.90
2022-10-22T11:51:31.161Z,17.40
2022-10-22T11:56:39.213Z,17.30
2022-10-22T12:01:44.102Z,17.70
2022-10-22T12:06:55.964Z,18.00
2022-10-22T12:12:15.345Z,18.00
2022-10-22T12:17:21.983Z,18.20
2022-10-22T12:22:28.458Z,18.60
2022-10-22T12:27:36.929Z,19.10
2022-10-22T12:32:41.559Z,20.50
2022-10-22T12:37:44.623Z,22.90
2022-10-22T12:42:55.498Z,29.20
2022-10-22T12:48:02.058Z,30.50
2022-10-22T12:53:06.659Z,35.40
2022-10-22T12:58:09.504Z,36.30
2022-10-22T13:03:27.910Z,33.90
2022-10-22T13:08:30.675Z,34.70
2022-10-22T13:13:35.558Z,37.10
2022-10-22T13:18:39.617Z,37.00
2022-10-22T13:23:54.404Z,33.70
2022-10-22T13:28:58.507Z,35.40
2022-10-22T13:34:09.796Z,36.70
2022-10-22T13:39:18.839Z,35.00
2022-10-22T13:44:21.677Z,36.20
2022-10-22T13:49:25.783Z,36.80
2022-10-22T13:54:28.645Z,36.30
2022-10-22T13:59:31.441Z,35.40
2022-10-22T14:04:40.041Z,31.30
2022-10-22T14:09:42.908Z,31.50
2022-10-22T14:14:45.764Z,32.30
2022-10-22T14:19:50.517Z,32.60
2022-10-22T14:24:54.254Z,32.00
2022-10-22T14:29:59.529Z,28.60
2022-10-22T14:35:03.963Z,28.30
2022-10-22T14:40:08.053Z,25.30
2022-10-22T14:45:15.260Z,24.70
2022-10-22T14:50:20.354Z,25.90
2022-10-22T14:55:23.073Z,24.00
2022-10-22T15:00:25.891Z,24.30
2022-10-22T15:05:30.450Z,25.20
2022-10-22T15:10:33.190Z,25.00
2022-10-22T15:15:39.426Z,24.90
2022-10-22T15:20:45.467Z,25.20
2022-10-22T15:25:48.339Z,25.80
2022-10-22T15:30:55.451Z,24.70
2022-10-22T15:36:00.082Z,22.60
2022-10-22T15:41:05.434Z,20.50
2022-10-22T15:46:15.260Z,19.10
2022-10-22T15:51:20.588Z,18.40
2022-10-22T15:56:24.070Z,18.00
2022-10-22T16:01:28.342Z,17.70
2022-10-22T16:06:35.351Z,17.40
2022-10-22T16:11:38.814Z,17.00
2022-10-22T16:16:44.610Z,16.80
2022-10-22T16:21:50.752Z,16.60
2022-10-22T16:26:53.857Z,16.20
2022-10-22T16:31:56.709Z,15.90
2022-10-22T16:37:00.842Z,15.70
2022-10-22T16:42:03.643Z,15.70
2022-10-22T16:47:06.526Z,15.50
2022-10-22T16:52:10.653Z,15.20
2022-10-22T16:57:13.741Z,15.10
2022-10-22T17:02:16.598Z,15.00
2022-10-22T17:07:20.677Z,14.90
2022-10-22T17:12:23.529Z,14.80
2022-10-22T17:17:26.313Z,14.70
2022-10-22T17:22:30.426Z,14.80
2022-10-22T17:27:33.157Z,14.70
2022-10-22T17:32:38.054Z,14.70
2022-10-22T17:37:42.536Z,14.60
2022-10-22T18:07:00.221Z,13.30
2022-10-22T19:28:48.029Z,12.50
2022-10-22T19:33:55.366Z,12.60
2022-10-22T19:39:01.812Z,12.60
2022-10-22T19:44:04.770Z,12.40
2022-10-22T19:49:07.524Z,12.20
2022-10-22T19:54:18.360Z,12.40
2022-10-22T19:59:22.675Z,12.80
2022-10-22T20:04:27.936Z,12.90
2022-10-22T20:09:31.996Z,13.10
2022-10-22T20:14:35.017Z,13.20
2022-10-22T20:19:38.335Z,13.10
2022-10-22T20:24:42.515Z,13.40
2022-10-22T20:29:45.253Z,13.50
2022-10-22T20:34:48.084Z,13.40
2022-10-22T20:39:52.263Z,13.40
2022-10-22T20:44:54.993Z,13.30
2022-10-22T20:49:57.772Z,13.10
2022-10-22T20:55:01.962Z,12.90
2022-10-22T21:00:05.315Z,12.70
2022-10-22T21:05:08.886Z,12.60
2022-10-22T21:10:12.973Z,12.50
2022-10-22T21:15:15.751Z,12.30
2022-10-22T21:20:20.978Z,12.10
2022-10-22T21:25:27.945Z,12.20
2022-10-22T21:30:30.729Z,12.10
2022-10-22T21:35:33.543Z,12.00
2022-10-22T21:40:38.494Z,12.00
2022-10-22T21:45:41.295Z,11.80
2022-10-22T21:50:45.241Z,11.80
2022-10-22T21:55:49.529Z,11.80
2022-10-22T22:00:57.063Z,11.50
2022-10-22T22:06:00.326Z,11.50
2022-10-22T22:11:06.676Z,11.40
2022-10-22T22:16:11.874Z,11.40
2022-10-22T22:21:17.882Z,11.20
2022-10-22T22:26:26.772Z,11.10
2022-10-22T22:31:34.295Z,10.80
2022-10-22T22:36:38.822Z,10.70
2022-10-22T22:41:43.090Z,10.80
2022-10-22T22:46:45.983Z,10.60
2022-10-22T22:51:50.116Z,10.40
2022-10-22T22:56:54.278Z,10.30
2022-10-22T23:01:57.082Z,10.20
2022-10-22T23:06:59.963Z,10.20
2022-10-22T23:12:04.297Z,10.10
2022-10-22T23:17:07.047Z,10.10
2022-10-22T23:22:09.788Z,10.40
2022-10-22T23:27:13.959Z,10.60
2022-10-22T23:32:16.763Z,10.60
2022-10-22T23:37:19.814Z,10.50
2022-10-22T23:42:23.914Z,10.50
2022-10-22T23:47:26.690Z,10.50
2022-10-22T23:52:29.612Z,10.40
2022-10-22T23:57:33.721Z,10.50
